KSCX

Details ICAO KSCX
Name Scott Muni
Region United States
Timezone America/New_York (UTC-5.0)
Plans Departing 1
Arriving 0
Stats Elevation 1,545 ft / 471 m (AMSL)
Location 36.455707° -84.585761°
Runways 1
Magnetic Variation 5.388° W
Sunrise 2017-12-18 12:46:15 UTC / 2017-12-18 07:46:15 Local
Sunset 2017-12-18 22:26:36 UTC / 2017-12-18 17:26:36 Local
Advertisement - Login to hide

Runways

ID Width Length Bearing (true) Bearing (mag) Surface Threshold Offset Overrun Length
05 75 ft / 23 m 5,501 ft / 1,677 m 46.30° 51.69° Asphalt 0 ft / 0 m 0 ft / 0 m
23 75 ft / 23 m 5,501 ft / 1,677 m 226.31° 231.70° Asphalt 0 ft / 0 m 0 ft / 0 m

Map

Weather


0- 5 10 15 20 25 30 35+ Temperature / ° C

Clouds and Precipitation
Forecast for 2017-12-19 00:00 UTC. Updated 2 hours ago

Ground ~20,000 ft ~40,000 ft Winds

METAR

KSCX 182055Z AUTO 22008G14KT 10SM FEW025 SCT030 13/07 A3009 RMK A01

TAF

Not found

Frequencies

Recorded 135.02 MHz AWOS 3
Unicom 122.80 MHz CTAF/UNICOM
Warning: Do not use this data for real-world aviation or navigation. No guarantee of current accuracy is given.